Date,TemperatureHighF,TemperatureAvgF,TemperatureLowF,DewpointHighF,DewpointAvgF,DewpointLowF,HumidityHigh,HumidityAvg,HumidityLow,PressureMaxIn,PressureMinIn,WindSpeedMaxMPH,WindSpeedAvgMPH,GustSpeedMaxMPH,PrecipitationSumIn
2013-1-1,38.5,31.6,27.9,36.1,30.0,26.4,96,94,89,30.45,30.30,4,1,4,0.01
2013-1-2,40.9,30.6,24.1,38.7,29.0,22.3,96,94,89,30.30,30.15,3,1,3,0.07
2013-1-3,39.1,31.1,19.6,36.6,28.9,17.7,95,92,80,30.15,30.06,11,1,11,0.07
2013-1-4,51.1,42.6,38.7,46.2,40.1,36.6,94,91,81,30.28,30.12,13,4,13,0.02
2013-1-5,41.4,39.8,38.0,39.2,36.9,35.3,95,89,82,30.15,30.08,9,2,9,0.03
2013-1-6,44.8,40.9,37.4,41.0,38.0,34.7,93,89,84,30.16,29.93,12,4,12,0.20
2013-1-7,49.5,45.4,41.2,47.8,43.6,39.3,96,94,90,30.14,29.83,17,6,17,0.57
2013-1-8,50.4,46.8,42.1,48.7,45.2,40.8,96,94,93,30.14,29.73,15,6,15,0.58
2013-1-9,49.1,40.3,34.6,47.4,38.4,32.9,95,93,90,29.92,29.66,12,4,12,1.21
2013-1-10,38.5,35.0,32.0,36.4,33.1,30.2,95,93,89,30.07,29.98,4,1,4,0.00
2013-1-11,38.5,29.7,22.9,32.5,26.2,20.3,95,87,64,30.28,30.07,10,1,10,0.00
2013-1-12,36.4,25.3,18.7,31.4,22.3,16.5,94,89,73,30.39,30.26,10,1,10,0.00
2013-1-13,35.5,24.9,16.9,31.6,22.1,14.7,95,89,79,30.45,30.37,4,0,4,0.03
2013-1-14,33.8,27.3,18.7,32.0,25.4,16.5,94,93,91,30.52,30.42,4,0,4,0.74
2013-1-15,41.2,32.4,23.0,37.2,30.1,21.1,95,91,82,30.65,30.51,9,2,9,0.00
2013-1-16,33.5,29.5,23.2,32.1,28.1,21.3,96,95,92,30.62,30.46,5,1,5,0.00
2013-1-17,35.3,31.5,28.6,34.2,30.3,27.4,97,96,95,30.47,30.25,3,0,3,0.02
2013-1-18,43.9,33.1,26.3,40.2,31.4,25.2,96,94,84,30.28,30.21,10,2,10,0.00
2013-1-19,34.4,32.7,30.6,33.1,31.6,29.9,97,96,94,30.33,30.27,10,4,10,0.00
2013-1-20,34.9,32.2,29.2,33.3,31.1,28.2,97,96,93,30.34,30.22,10,4,10,0.00
2013-1-21,36.5,30.6,27.5,35.0,29.3,26.3,96,95,89,30.23,30.09,7,2,7,0.00
2013-1-22,39.2,29.9,21.2,37.2,28.2,19.4,95,93,90,30.09,29.87,5,0,5,0.00
2013-1-23,39.1,36.3,33.8,37.3,34.2,31.6,95,92,87,30.12,29.81,16,5,16,0.18
2013-1-24,48.2,39.9,32.8,44.7,37.8,31.2,96,92,82,30.17,30.00,12,1,12,0.23
2013-1-25,55.6,43.9,29.7,50.9,41.3,27.6,96,91,80,30.02,29.89,9,2,12,0.05
2013-1-26,46.6,40.5,29.2,43.6,38.3,26.9,95,92,84,30.00,29.83,12,4,12,0.18
2013-1-27,42.3,39.5,37.4,40.2,37.6,35.3,94,93,91,30.04,29.96,13,5,13,0.22
2013-1-28,42.7,40.7,38.9,40.8,38.8,37.0,95,93,90,30.09,29.98,10,4,10,0.36
2013-1-29,48.1,45.0,42.1,45.0,42.9,40.8,95,92,86,30.36,30.09,14,4,14,0.11
2013-1-30,48.6,46.3,43.9,47.0,44.8,42.0,95,94,93,30.35,30.30,14,6,14,0.22
2013-1-31,48.6,45.9,41.9,46.5,44.2,40.1,95,94,92,30.38,30.27,8,3,8,0.07
2013-2-1,50.4,44.8,40.5,45.9,42.3,37.8,96,91,78,30.35,30.29,12,3,12,0.00
2013-2-2,47.3,40.7,31.5,42.3,38.2,29.7,95,91,82,30.31,30.20,11,3,11,0.00
2013-2-3,47.2,41.3,31.1,44.7,39.1,29.3,96,92,87,30.26,30.17,8,1,8,0.00
2013-2-4,55.3,46.1,40.0,48.0,42.2,37.0,93,87,69,30.18,29.86,8,2,8,0.00
2013-2-5,49.3,44.8,41.9,46.0,42.0,39.5,93,90,85,29.93,29.80,12,5,12,0.46
2013-2-6,48.6,44.4,41.6,44.6,41.3,38.5,94,89,81,30.01,29.73,14,4,14,0.19
2013-2-7,53.1,40.1,27.0,43.1,35.7,24.2,94,85,56,30.14,29.77,9,2,9,0.01
2013-2-8,45.9,35.8,25.7,38.4,31.7,23.4,94,85,66,30.26,30.14,9,2,9,0.00
2013-2-9,52.4,38.8,28.1,44.6,34.6,26.1,95,85,67,30.28,30.20,4,1,4,0.00
2013-2-10,45.7,41.9,40.0,39.7,37.8,36.6,93,86,75,30.32,30.27,7,1,7,0.00
2013-2-11,48.6,43.3,38.5,44.4,40.3,35.8,93,89,85,30.31,30.27,8,2,8,0.01
2013-2-12,52.2,46.8,43.2,48.2,44.2,41.3,94,90,81,30.38,30.30,11,3,11,0.14
2013-2-13,49.9,43.5,32.9,44.6,40.4,30.6,94,89,76,30.47,30.31,11,3,11,0.00
2013-2-14,50.8,42.8,33.5,47.0,40.2,31.3,95,91,86,30.50,30.45,10,2,10,0.00
2013-2-15,54.2,45.3,32.9,46.4,41.5,30.5,95,87,71,30.48,30.13,11,4,11,0.00
2013-2-16,52.0,42.7,31.7,45.1,38.9,29.3,95,87,68,30.20,30.13,13,4,13,0.00
2013-2-17,49.7,40.3,31.9,43.4,36.1,28.9,91,85,72,30.20,30.05,12,3,12,0.00
2013-2-18,47.7,38.8,30.2,41.5,34.5,27.5,94,85,70,30.05,29.69,10,2,10,0.00
2013-2-19,50.2,42.1,37.3,41.1,36.7,33.4,93,82,61,29.95,29.66,12,2,12,0.00
2013-2-20,51.3,38.9,30.4,48.5,35.6,27.5,94,88,77,30.01,29.93,10,2,10,0.20
2013-2-21,43.2,41.0,39.4,40.6,38.8,37.0,93,92,89,30.06,29.96,13,5,13,0.00
2013-2-22,56.9,41.7,36.7,54.5,39.1,33.8,95,90,77,30.05,29.81,17,6,17,0.00
2013-2-23,49.0,41.5,36.7,40.0,36.4,33.5,94,83,63,30.44,30.02,17,5,17,0.00
2013-2-24,50.8,43.6,38.5,41.7,37.3,35.3,89,79,66,30.45,30.00,12,5,12,0.00
2013-2-25,49.7,41.8,37.1,42.0,37.4,33.2,92,85,66,30.31,29.97,15,5,15,0.00
2013-2-26,50.8,42.1,36.7,40.8,36.4,33.8,90,80,65,30.34,30.19,10,4,10,0.00
2013-2-27,51.3,45.0,39.4,45.5,41.1,36.1,94,86,78,30.28,30.18,9,2,9,0.00
2013-2-28,52.9,48.4,43.4,51.0,46.6,41.8,96,94,92,30.33,30.17,10,2,10,0.00
2013-3-1,62.5,53.0,50.9,57.7,50.4,48.8,94,91,82,30.38,30.32,12,5,12,0.00
2013-3-2,58.5,46.8,37.6,50.3,42.1,34.5,89,84,73,30.22,30.08,13,5,13,0.00
2013-3-3,54.4,41.9,30.2,40.2,34.6,26.6,92,77,51,30.27,30.21,10,3,10,0.00
2013-3-4,52.7,37.5,25.6,35.8,29.1,22.5,93,74,43,30.26,29.88,13,3,13,0.00
2013-3-5,46.8,40.1,29.7,41.1,36.5,26.2,94,87,75,29.89,29.67,6,2,6,0.00
2013-3-6,46.1,42.2,39.8,43.1,40.0,37.9,95,92,88,29.87,29.55,7,2,7,0.00
2013-3-7,55.8,45.0,32.6,44.8,39.6,29.4,93,82,59,30.05,29.87,10,3,10,0.00
2013-3-8,50.0,40.0,29.9,42.7,36.3,26.8,95,87,69,30.21,30.04,9,2,9,0.00
2013-3-9,62.3,41.6,27.4,46.6,33.6,25.1,94,76,43,30.48,30.21,6,1,6,0.00
2013-3-10,50.6,39.4,29.7,45.5,35.5,25.7,91,86,80,30.48,30.41,4,1,4,0.00
2013-3-11,50.8,47.8,43.4,47.9,45.4,41.4,94,91,88,30.37,30.16,11,2,11,0.00
2013-3-12,55.3,51.2,48.8,51.2,48.5,46.8,94,91,84,30.16,30.08,13,5,13,0.00
2013-3-13,56.0,51.3,47.5,52.7,48.7,45.4,94,91,88,30.19,30.06,10,2,10,0.00
2013-3-14,53.1,50.1,48.1,50.2,47.6,45.5,96,91,82,30.14,30.00,10,2,10,0.00
2013-3-15,63.2,53.0,47.5,53.6,48.5,44.6,93,85,64,30.18,30.13,8,3,8,0.00
2013-3-16,51.1,46.0,38.9,46.8,41.9,35.8,93,86,68,30.14,29.94,17,4,17,0.00
2013-3-17,47.5,40.8,35.6,41.5,36.4,32.9,91,84,69,30.22,30.02,19,5,19,0.00
2013-3-18,55.3,43.3,31.5,44.5,34.5,25.7,93,74,39,30.20,30.16,14,5,14,0.00
2013-3-19,47.5,39.2,29.2,42.9,35.4,25.2,93,87,70,30.18,29.56,5,1,5,0.00
2013-3-20,50.8,44.4,36.4,49.1,41.5,33.2,94,89,79,30.06,29.38,16,5,16,0.00
2013-3-21,49.1,39.4,34.4,42.7,35.6,31.2,94,87,63,30.22,30.06,17,5,17,0.00
2013-3-22,52.2,39.4,32.2,39.0,33.2,28.3,92,80,52,30.35,30.21,11,3,11,0.00
2013-3-23,57.2,39.9,31.0,39.5,31.3,25.5,92,74,39,30.36,30.26,5,1,5,0.00
2013-3-24,53.8,40.3,30.6,37.5,32.2,25.4,92,74,49,30.27,30.08,10,2,10,0.00
2013-3-25,59.4,43.9,27.5,40.3,33.9,24.1,94,71,44,30.09,29.90,7,2,7,0.00
2013-3-26,64.8,52.1,43.6,47.4,42.5,38.5,87,71,45,29.99,29.92,5,1,5,0.00
2013-3-27,64.6,51.9,46.6,50.0,45.0,41.9,91,78,53,29.96,29.90,10,1,10,0.00
2013-3-28,66.2,53.5,47.5,53.3,46.9,42.4,94,79,53,30.11,29.96,6,1,6,0.00
2013-3-29,51.1,47.2,45.9,48.0,44.2,42.9,92,89,85,30.21,30.11,2,0,2,0.00
2013-4-8,57.8,49.9,43.4,42.6,40.3,37.4,80,70,55,30.26,30.16,10,4,10,0.00
2013-4-9,60.5,48.9,35.3,46.2,40.3,30.9,89,73,56,30.32,30.17,9,2,9,0.00
2013-4-10,56.3,51.7,45.0,50.4,44.5,40.1,92,77,64,30.27,29.95,17,7,18,0.39
2013-4-11,62.3,49.4,38.0,45.1,39.0,30.4,91,70,40,30.30,30.17,14,4,14,0.00
2013-4-12,50.4,41.4,32.8,43.9,36.5,27.5,92,83,67,30.17,29.71,21,3,21,0.21
2013-4-13,51.1,43.2,37.1,46.1,38.9,32.9,90,85,78,30.00,29.82,14,5,14,0.50
2013-4-14,58.3,44.7,39.8,46.9,39.8,36.9,92,84,56,30.00,29.92,10,2,10,0.28
2013-4-15,56.3,44.6,35.1,44.0,37.8,33.1,95,79,50,30.16,29.91,23,2,23,0.06
2013-4-16,58.9,49.1,34.0,45.9,38.9,30.7,94,70,45,30.37,30.24,13,3,13,0.01
2013-4-17,64.1,48.2,29.9,47.3,38.2,26.5,93,70,46,30.45,30.37,13,3,13,0.00
2013-4-18,58.0,49.9,43.7,48.7,43.5,37.7,91,79,65,30.45,30.23,10,3,10,0.11
2013-4-19,56.9,51.3,48.8,53.3,48.1,45.1,95,89,78,30.23,30.05,15,5,15,0.36
2013-4-20,59.8,50.9,45.7,48.8,45.1,42.4,92,81,62,30.28,30.23,16,6,16,0.00
2013-4-21,58.7,48.9,42.8,48.0,42.8,39.6,91,80,56,30.34,30.21,12,3,12,0.09
2013-4-22,61.6,48.8,33.8,45.6,36.5,26.8,95,68,29,30.48,30.34,15,4,15,0.00
2013-4-23,65.9,52.7,27.0,41.0,32.1,23.0,88,50,27,30.34,30.19,13,3,13,0.00
2013-4-24,70.7,51.9,30.4,43.0,35.1,25.8,90,57,24,30.28,30.03,12,3,12,0.00
2013-4-25,80.3,55.5,34.9,51.8,41.1,30.5,88,62,31,30.15,30.01,10,3,10,0.00
2013-4-26,78.3,58.1,42.8,52.7,41.8,33.3,91,60,26,30.23,30.15,9,3,9,0.00
2013-4-27,64.1,53.4,44.6,51.3,44.0,35.8,89,71,53,30.24,30.17,9,2,9,0.05
2013-4-28,65.0,54.0,48.8,50.0,45.7,42.1,92,75,44,30.21,29.96,13,4,13,0.24
2013-4-29,57.4,48.9,39.8,47.9,39.2,32.5,93,70,47,30.17,29.94,19,8,19,0.03
2013-4-30,62.8,48.3,37.3,39.3,34.5,31.3,87,62,37,30.43,30.16,11,4,11,0.00
2013-5-1,64.4,48.0,29.0,40.0,31.9,22.6,89,58,24,30.53,30.43,13,3,13,0.00
2013-5-2,71.3,55.5,36.5,47.4,38.2,30.2,84,55,33,30.50,30.31,14,4,14,0.00
2013-5-3,72.4,55.8,36.9,49.8,41.2,31.9,90,61,37,30.36,30.18,18,5,18,0.00
2013-5-4,79.2,61.3,40.7,52.6,42.4,35.7,89,55,26,30.19,29.96,19,6,19,0.00
2013-5-5,83.2,63.6,40.5,49.3,41.2,34.1,85,49,22,29.96,29.73,18,5,18,0.00
2013-5-6,92.2,65.8,41.0,59.4,48.4,35.3,85,57,31,29.84,29.75,10,3,10,0.00
2013-5-7,74.2,59.4,50.8,55.5,49.6,45.5,87,71,51,30.01,29.83,10,4,10,0.00
2013-5-8,73.3,59.4,50.8,56.5,49.8,45.5,86,71,52,30.13,30.01,7,2,7,0.00
2013-5-9,76.9,62.9,49.3,58.8,50.4,45.1,91,67,39,30.20,30.08,8,2,8,0.00
2013-5-10,90.4,64.8,41.2,61.7,50.0,37.0,90,62,33,30.19,30.09,7,2,7,0.00
2013-5-11,86.9,67.0,52.0,61.4,52.6,44.2,80,62,37,30.18,30.00,10,3,10,0.00
2013-5-12,78.7,65.8,58.9,59.7,55.8,53.2,85,71,46,30.09,30.01,8,2,8,0.06
2013-5-13,68.9,57.8,42.8,59.2,51.1,37.7,90,79,57,30.21,29.95,13,3,13,0.24
2013-5-14,73.8,55.9,40.7,50.7,43.1,36.4,92,66,32,30.21,30.09,7,2,7,0.00
2013-5-15,65.3,53.5,37.8,53.4,45.9,33.7,90,76,59,30.11,29.99,7,1,7,0.03
2013-5-16,74.2,58.5,45.0,56.7,50.1,42.3,93,75,45,29.99,29.85,9,2,9,0.09
2013-5-17,70.6,58.7,48.6,57.1,50.0,43.5,89,74,51,30.07,29.95,11,2,11,0.23
2013-5-18,67.5,56.1,47.5,55.5,49.4,42.9,89,79,60,30.26,30.06,6,1,6,0.07
2013-5-19,75.2,58.2,49.1,54.1,48.6,42.8,90,72,42,30.39,30.26,10,3,10,0.00
2013-5-20,75.2,57.3,44.1,54.9,46.8,40.5,89,70,43,30.34,29.90,8,2,8,0.07
2013-5-21,61.4,51.7,46.4,52.6,44.6,40.9,88,77,61,29.92,29.79,14,4,14,0.52
2013-5-22,54.4,47.6,39.2,47.8,43.2,34.8,91,85,75,29.92,29.84,11,3,11,0.28
2013-5-23,52.6,47.0,37.4,48.6,43.6,34.5,94,88,82,29.96,29.91,8,2,8,0.65
2013-5-24,70.4,54.8,46.3,55.2,48.6,44.1,93,81,52,30.05,29.94,8,2,8,0.28
2013-5-25,68.4,56.4,47.9,53.5,48.9,45.1,91,77,53,30.03,29.94,8,2,8,0.00
2013-5-26,70.9,57.8,49.0,59.2,51.5,45.5,94,80,60,29.98,29.92,10,2,10,0.21
2013-5-27,67.0,56.5,51.1,60.3,51.5,46.9,94,84,66,29.94,29.67,12,2,12,0.62
2013-5-28,69.5,58.4,51.5,57.2,49.9,45.9,90,74,52,29.87,29.73,14,3,14,0.16
2013-5-29,65.3,54.6,49.3,54.7,48.6,46.2,94,81,57,29.99,29.65,13,3,13,0.56
2013-5-30,65.5,56.5,46.8,55.1,49.5,43.0,91,78,59,30.23,29.99,9,2,9,0.18
2013-5-31,72.7,57.1,44.3,54.4,46.7,41.8,94,71,42,30.32,30.22,8,1,8,0.01
2013-6-1,82.8,64.2,47.2,56.0,50.0,41.9,89,63,37,30.23,30.03,9,2,9,0.00
2013-6-2,75.2,61.4,52.4,56.7,50.2,46.1,82,68,47,30.08,30.03,8,3,8,0.00
2013-6-3,79.6,61.3,44.8,57.1,49.3,40.6,88,67,41,30.11,30.03,10,3,10,0.00
2013-6-4,83.2,63.9,40.9,59.0,49.4,36.4,89,62,37,30.11,29.98,10,2,10,0.00
2013-6-5,87.3,66.8,47.2,63.7,53.5,41.7,89,64,42,30.08,30.00,9,2,9,0.00
2013-6-6,87.7,66.1,51.7,62.8,51.3,42.8,91,62,30,30.05,29.99,12,3,12,0.00
2013-6-7,73.1,61.4,52.0,56.8,49.4,42.6,81,66,44,30.15,30.03,12,4,12,0.00
2013-6-8,79.9,61.5,47.2,58.1,49.3,42.3,86,67,40,30.17,30.07,9,3,9,0.00
2013-6-9,77.4,59.7,49.9,55.6,47.8,41.5,86,67,41,30.10,30.01,12,3,12,0.00
2013-6-10,76.0,57.1,37.1,54.6,44.4,32.0,87,64,40,30.02,29.89,11,3,11,0.00
2013-6-11,69.1,56.3,48.1,54.6,47.2,41.9,86,73,48,30.11,29.95,12,3,12,0.06
2013-6-12,71.6,57.4,46.1,54.5,48.8,41.8,91,74,50,30.14,30.10,10,2,10,0.04
2013-6-13,73.1,60.0,51.1,57.8,50.3,46.5,89,72,47,30.24,30.12,11,3,11,0.12
2013-6-14,69.8,58.9,47.5,54.5,49.6,41.3,85,72,56,30.24,30.01,6,2,6,0.00
2013-6-15,83.2,62.3,40.3,57.3,49.4,37.0,95,66,34,30.01,29.90,13,3,13,0.00
2013-6-16,77.6,64.5,53.1,59.2,52.9,48.4,87,68,50,30.09,29.99,9,4,9,0.00
2013-6-17,79.4,63.1,51.8,58.2,52.6,46.5,89,70,42,30.09,29.92,13,2,13,0.08
2013-6-18,76.7,61.3,49.3,57.2,50.8,43.7,92,71,41,29.97,29.90,10,2,10,0.01
2013-6-19,73.8,59.5,43.4,55.1,48.3,40.1,92,69,44,30.02,29.91,12,3,12,0.00
2013-6-20,66.6,58.2,52.0,54.2,49.9,46.9,86,75,59,30.11,29.98,11,3,11,0.11
2013-6-21,74.3,61.0,52.6,61.8,53.4,48.3,90,77,56,30.14,30.09,6,2,6,0.01
2013-6-22,86.4,65.9,44.3,61.3,51.9,40.9,93,65,35,30.10,29.82,8,1,8,0.00
2013-6-23,69.7,62.9,58.9,62.2,57.7,52.6,90,83,70,29.82,29.60,8,2,8,0.28
2013-6-24,74.0,65.4,57.8,62.5,57.1,54.1,90,75,58,29.68,29.60,10,2,10,0.26
2013-6-25,81.5,64.4,56.0,62.4,57.3,52.9,93,79,49,29.82,29.64,8,2,8,0.27
2013-6-26,60.8,58.4,57.2,57.6,54.6,53.7,90,87,83,30.04,29.81,6,0,6,0.16
2013-6-27,72.0,63.6,58.5,64.0,59.8,55.6,92,87,76,30.17,30.01,5,1,5,0.33
2013-6-28,91.4,72.5,58.0,71.7,63.1,55.5,98,75,48,30.16,30.03,10,3,10,0.00
2013-6-29,94.0,76.2,60.8,67.3,61.1,55.7,87,62,37,30.08,29.97,7,2,7,0.00
2013-6-30,95.0,75.7,54.7,68.8,61.1,50.4,87,63,38,29.99,29.83,10,3,10,0.00
2013-7-1,93.2,75.5,61.4,70.6,62.0,55.3,84,65,45,30.02,29.89,12,3,12,0.00
2013-7-2,85.1,68.5,57.6,67.9,58.5,52.7,88,72,52,30.09,30.02,7,3,7,0.00
2013-7-3,86.8,67.6,53.6,62.2,53.8,47.5,80,63,37,30.14,30.03,13,3,13,0.00
2013-7-4,77.6,66.0,55.3,57.2,53.0,49.7,82,64,47,30.10,30.02,10,4,10,0.00
2013-7-5,82.3,65.5,55.3,59.7,53.6,49.0,83,67,41,30.02,29.93,9,3,9,0.00
2013-7-6,83.2,64.3,46.3,60.0,52.8,41.3,89,69,43,29.96,29.83,10,2,10,0.00
2013-7-7,81.4,65.3,55.1,61.2,54.9,50.2,88,71,49,29.95,29.87,11,4,11,0.00
2013-7-8,84.6,67.0,54.7,63.7,55.5,49.3,84,68,46,30.08,29.95,8,2,8,0.00
2013-7-9,91.4,70.4,53.1,64.4,56.0,48.1,91,64,34,30.08,29.97,9,3,9,0.00
2013-7-10,80.5,63.4,53.5,55.5,50.6,45.5,86,65,38,30.06,29.95,13,5,13,0.00
2013-7-11,80.1,62.8,50.8,56.3,49.3,44.8,82,64,37,30.04,29.98,8,2,8,0.00
2013-7-12,76.7,65.1,50.0,55.7,50.5,45.5,88,60,42,30.08,29.99,9,3,9,0.00
2013-7-13,77.8,59.5,40.5,53.8,46.7,35.8,87,66,34,30.17,30.06,12,2,12,0.00
2013-7-14,90.0,66.2,40.9,55.8,45.6,36.0,88,53,23,30.10,29.97,12,3,12,0.00
2013-7-15,82.4,74.8,59.0,55.4,48.5,42.6,61,41,26,30.00,29.85,16,7,16,0.00
2013-7-16,85.1,69.7,49.1,57.8,51.1,42.0,83,54,33,29.90,29.77,11,3,11,0.00
2013-7-17,76.9,65.0,52.0,60.0,54.3,45.0,82,69,50,30.16,29.90,10,3,10,0.00
2013-7-18,79.6,62.5,43.4,60.4,51.9,38.9,91,70,49,30.20,30.08,10,2,10,0.00
2013-7-19,86.4,66.0,52.4,64.4,55.0,47.7,89,70,46,30.14,30.01,10,3,10,0.00
2013-7-20,83.2,64.8,54.2,62.0,54.4,49.6,89,72,46,30.07,29.94,9,4,10,0.00
2013-7-21,79.6,63.9,54.9,60.4,54.7,49.7,88,74,51,29.96,29.90,10,4,10,0.00
2013-7-22,80.8,65.2,55.4,61.9,55.7,51.3,88,73,50,30.04,29.93,10,3,10,0.00
2013-7-23,90.9,68.0,54.4,62.9,55.4,51.5,94,69,33,30.03,29.92,11,3,11,0.00
2013-7-24,92.5,70.6,54.4,63.9,55.8,49.8,88,63,36,30.04,29.95,9,3,9,0.00
2013-7-25,92.9,70.4,54.2,61.5,54.0,48.9,87,60,31,30.08,30.00,9,3,9,0.00
2013-7-26,90.0,69.0,48.8,60.1,51.3,43.2,82,57,30,30.13,30.05,13,4,13,0.00
2013-7-27,83.5,65.3,52.9,56.6,51.5,47.1,85,64,37,30.14,29.99,11,4,11,0.00
2013-7-28,73.3,61.5,53.3,55.7,51.5,47.7,84,71,51,30.01,29.95,10,4,10,0.00
2013-7-29,85.3,66.0,51.5,59.8,52.8,45.4,85,65,39,29.99,29.91,10,2,10,0.00
2013-7-30,80.1,65.0,54.7,59.6,54.4,49.8,86,70,48,30.12,29.99,10,3,10,0.00
2013-7-31,84.6,64.9,56.2,62.4,55.4,50.7,88,73,44,30.10,29.97,10,3,10,0.00
2013-8-1,74.0,62.6,56.2,58.7,54.2,51.0,85,75,55,30.06,30.01,11,3,11,0.00
2013-8-2,72.0,62.8,53.3,59.4,55.5,48.3,91,78,59,30.09,30.03,8,2,8,0.01
2013-8-3,74.9,65.2,58.1,58.9,56.4,51.7,87,74,56,30.09,30.01,10,2,10,0.00
2013-8-4,85.3,68.6,49.1,62.0,55.8,45.7,91,67,42,30.02,29.90,13,3,13,0.00
2013-8-5,91.6,70.4,56.2,63.9,55.8,44.3,89,64,26,29.99,29.90,10,3,10,0.00
2013-8-6,93.2,69.8,52.4,62.5,53.3,46.6,86,60,28,29.98,29.88,9,3,9,0.00
2013-8-7,92.2,69.3,54.9,62.7,55.2,50.0,87,65,33,30.00,29.91,11,3,11,0.00
2013-8-8,87.5,69.7,58.9,63.8,57.6,51.8,86,68,41,30.01,29.91,9,3,9,0.00
2013-8-9,83.9,67.3,56.2,62.4,55.8,50.7,88,69,35,29.94,29.83,10,3,10,0.04
2013-8-10,83.7,66.8,56.5,64.0,57.5,51.8,91,74,44,30.01,29.86,10,4,11,0.15
2013-8-11,79.6,61.1,55.1,59.1,53.0,50.0,85,75,50,30.04,29.97,8,3,9,0.00
2013-8-12,82.6,67.1,58.0,58.7,53.5,49.8,79,63,41,30.05,29.99,10,2,10,0.00
2013-8-13,89.3,68.4,47.7,59.0,51.5,42.8,89,60,27,30.07,29.89,9,2,9,0.00
2013-8-14,89.3,66.4,52.2,60.9,55.1,45.7,91,69,35,29.93,29.88,10,2,10,0.17
2013-8-15,73.8,66.0,60.1,67.4,61.4,56.5,93,85,76,29.95,29.88,3,1,4,0.15
2013-8-16,92.2,70.5,60.1,68.0,61.0,53.4,93,75,42,30.00,29.92,10,2,10,0.00
2013-8-17,81.7,72.8,61.4,62.9,59.3,53.4,80,64,47,30.05,30.00,10,4,10,0.00
2013-8-18,81.7,67.2,51.3,61.4,55.9,48.0,92,69,49,30.09,30.04,12,3,12,0.00
2013-8-19,81.2,65.9,49.0,60.3,54.2,45.1,93,68,41,30.08,30.03,12,3,12,0.00
2013-8-20,78.8,64.2,47.9,54.4,49.5,42.9,89,62,34,30.12,30.02,14,3,14,0.00
2013-8-21,82.8,63.2,41.9,52.5,46.0,37.7,91,58,32,30.04,29.88,18,4,18,0.00
2013-8-22,85.5,64.1,47.2,59.7,50.1,41.8,85,63,37,29.90,29.78,12,2,12,0.00
2013-8-23,79.7,67.5,60.3,59.8,56.5,54.0,84,70,45,29.87,29.83,12,4,12,0.00
2013-8-24,80.5,66.8,57.6,61.7,54.9,49.9,88,68,42,29.88,29.83,10,2,10,0.04
2013-8-25,76.0,61.4,46.1,58.3,52.3,42.0,93,73,50,29.89,29.83,6,1,6,0.00
2013-8-26,80.3,65.9,58.7,61.0,56.1,52.4,85,72,41,29.91,29.83,15,2,15,0.14
2013-8-27,86.8,69.9,59.4,64.5,59.7,56.0,91,72,42,29.91,29.76,9,2,9,0.01
2013-8-28,85.5,70.7,62.1,67.0,61.9,58.6,93,75,47,29.87,29.79,6,1,6,0.19
2013-8-29,81.7,67.7,62.3,69.3,63.0,59.0,95,85,63,30.00,29.79,12,1,12,1.17
2013-8-30,85.7,68.5,56.5,63.7,58.0,51.5,95,72,37,30.10,30.00,8,1,8,0.00
2013-8-31,83.7,65.5,49.7,59.4,53.8,45.6,95,69,40,30.03,29.80,13,3,13,0.00
2013-9-1,87.3,74.7,59.9,63.3,58.0,51.2,81,57,42,29.85,29.77,13,3,13,0.00
2013-9-2,86.8,69.2,57.4,64.1,57.7,52.2,87,69,44,29.90,29.82,11,2,11,0.01
2013-9-3,76.7,65.3,58.3,63.9,58.9,53.2,94,81,60,29.98,29.89,7,2,7,0.66
2013-9-4,75.6,64.1,54.0,63.5,58.3,50.9,96,82,62,30.01,29.94,10,2,10,0.05
2013-9-5,69.8,63.4,58.7,63.7,59.7,56.3,94,88,76,30.00,29.90,9,2,9,1.75
2013-9-6,70.4,64.5,60.8,63.5,60.7,59.0,95,88,76,30.08,29.90,8,2,8,1.12
2013-9-7,74.9,63.9,54.5,62.2,57.6,51.7,96,81,60,30.08,29.97,10,2,10,0.00
2013-9-8,84.6,63.1,52.4,63.6,56.6,49.7,97,82,46,30.07,29.99,8,2,8,0.01
2013-9-9,78.8,65.8,59.2,65.2,59.5,55.1,92,81,61,30.02,29.92,7,2,7,0.00
2013-9-10,79.0,65.1,50.2,63.6,57.8,47.3,97,79,54,29.94,29.82,14,4,14,0.00
2013-9-11,90.4,75.8,56.5,67.7,61.9,55.1,96,65,41,29.91,29.82,10,4,10,0.00
2013-9-12,86.0,67.6,59.2,67.3,59.7,56.1,91,77,52,29.96,29.87,9,3,9,0.00
2013-9-13,74.7,64.9,60.1,63.5,59.0,56.3,89,82,65,29.92,29.83,7,2,7,0.00
2013-9-14,69.7,63.4,56.2,62.7,59.4,53.3,94,87,77,29.83,29.69,9,2,9,0.00
2013-9-15,67.0,61.3,54.5,63.2,58.9,52.0,96,92,87,29.79,29.67,6,1,6,0.07
2013-9-16,71.3,63.3,57.6,65.1,58.2,52.5,94,84,64,29.90,29.79,12,2,12,0.09
2013-9-17,72.2,60.6,52.2,58.2,52.7,48.1,92,76,48,29.92,29.81,12,2,12,0.00
2013-9-18,77.2,60.1,47.3,56.7,51.2,42.9,92,74,43,30.03,29.91,10,2,10,0.00
2013-9-19,80.5,58.9,45.2,58.2,49.7,41.8,95,75,39,29.99,29.72,6,1,6,0.01
2013-9-20,76.7,57.2,43.0,59.8,50.8,39.6,94,80,49,29.73,29.56,16,1,16,0.10
2013-9-21,72.0,60.9,52.0,60.7,54.5,49.6,95,81,57,29.69,29.61,10,2,10,0.01
2013-9-22,64.1,57.2,54.0,58.2,53.8,51.4,93,88,79,29.73,29.52,17,4,17,0.71
2013-9-23,61.9,56.3,46.3,56.9,52.8,43.8,94,88,79,29.93,29.73,12,3,12,0.19
2013-9-24,66.8,52.8,45.0,55.4,48.8,42.6,97,87,59,29.92,29.80,11,1,11,0.17
2013-9-25,61.6,52.6,44.3,53.0,48.5,40.8,95,86,69,29.98,29.80,9,1,9,0.05
2013-9-26,65.5,50.5,40.5,53.4,45.3,37.7,95,83,59,30.09,29.97,6,1,6,0.01
2013-9-27,57.6,52.1,41.0,54.1,49.8,38.1,96,92,87,30.08,29.81,16,5,16,0.23
2013-9-28,60.7,55.6,50.9,59.0,53.9,49.1,96,94,87,29.81,29.35,19,5,19,3.02
2013-9-29,55.4,52.7,49.3,52.9,50.7,46.5,95,93,85,29.53,29.14,20,6,20,1.36
2013-9-30,58.3,51.8,47.7,53.3,48.9,45.2,96,90,76,29.90,29.42,14,5,14,1.02
2013-10-1,65.5,52.4,47.5,54.7,47.9,45.2,96,85,56,30.10,29.87,15,3,15,0.66
2013-10-2,59.8,50.3,45.7,52.9,47.2,42.4,95,89,73,30.12,29.99,10,2,10,0.62
2013-10-3,61.7,50.0,41.8,51.7,45.4,38.4,96,85,64,30.39,30.12,5,1,5,0.00
2013-10-4,65.2,52.8,38.3,53.5,46.5,36.7,95,80,59,30.42,30.30,5,1,5,0.00
2013-10-5,68.2,49.9,36.5,53.4,43.6,34.1,96,81,52,30.30,30.08,8,1,8,0.02
2013-10-6,76.1,53.4,34.9,54.2,43.4,32.8,96,73,37,30.08,29.86,15,2,15,0.00
2013-10-7,64.6,54.4,50.8,54.5,49.8,47.4,93,85,59,30.03,29.87,16,3,16,0.42
2013-10-8,59.8,50.2,40.7,50.4,45.6,37.6,91,84,60,30.03,29.91,16,2,16,0.03
2013-10-9,63.4,46.5,35.8,50.1,41.2,34.1,95,83,58,30.08,29.90,6,1,6,0.02
2013-10-10,60.1,50.9,41.9,54.3,46.9,38.8,93,86,75,30.02,29.88,7,1,7,0.02
2013-10-11,61.2,48.8,39.2,53.7,44.8,37.4,95,86,70,30.08,30.01,4,1,4,0.01
2013-10-12,57.6,48.1,38.7,50.0,44.3,36.0,94,87,73,30.15,30.01,6,1,6,0.13
2013-10-13,58.5,45.7,36.2,49.1,41.5,32.9,97,86,64,30.29,30.15,10,1,10,0.02
2013-10-14,58.0,44.3,34.7,49.3,39.9,32.1,97,85,63,30.36,30.29,13,2,13,0.01
2013-10-15,61.2,44.3,32.6,51.0,39.8,30.2,96,85,59,30.32,30.11,8,1,8,0.00
2013-10-16,53.8,45.5,38.2,49.8,42.8,35.6,97,90,83,30.14,30.08,10,2,10,0.01
2013-10-17,58.9,47.9,37.6,51.5,44.7,35.2,97,89,75,30.21,30.14,10,2,10,0.00
2013-10-18,52.6,44.3,36.4,50.0,42.7,34.2,98,94,89,30.18,30.08,11,2,11,0.01
2013-10-19,49.7,44.3,37.4,48.0,43.1,35.8,97,96,94,30.12,30.08,8,2,8,0.01
2013-10-20,49.3,46.9,45.0,47.4,45.7,44.2,97,95,91,30.13,30.07,10,4,10,0.01
2013-10-21,51.1,47.4,44.6,48.3,46.2,43.8,98,96,90,30.09,30.01,12,5,12,0.00
2013-10-22,60.1,49.6,39.6,53.0,47.2,37.7,98,92,74,30.04,29.95,12,4,12,0.00
2013-10-23,54.4,47.0,39.8,51.3,45.4,37.7,98,94,88,29.99,29.91,7,1,7,0.00
2013-10-24,52.2,47.3,43.4,49.9,46.0,42.6,97,95,90,30.06,29.96,3,1,3,0.01
2013-10-25,61.9,52.4,47.0,53.9,49.0,43.8,96,88,67,30.24,30.06,9,2,9,0.00
2013-10-26,52.2,49.0,45.7,47.4,46.0,43.3,97,89,82,30.26,30.12,12,3,12,0.00
2013-10-27,54.7,48.1,35.3,48.3,44.7,33.4,96,88,76,30.14,29.84,17,3,17,0.03
2013-10-28,58.3,42.3,30.1,44.8,33.7,26.4,97,75,41,29.88,29.80,18,3,18,0.00
2013-10-29,63.9,39.2,24.1,43.7,31.5,21.3,95,76,41,29.97,29.87,7,1,7,0.01
2013-10-30,60.8,43.6,27.2,48.3,37.5,24.1,96,80,60,30.09,29.97,10,2,10,0.00
2013-10-31,57.2,51.6,47.9,53.6,48.7,43.9,94,90,85,30.20,30.04,14,3,14,0.02
2013-11-1,59.6,49.9,39.6,53.9,47.0,37.7,96,90,80,30.21,29.78,10,1,10,0.04
2013-11-2,54.9,49.6,43.6,50.5,45.0,39.6,94,85,64,29.88,29.50,27,7,27,0.56
2013-11-3,55.1,44.2,30.1,43.7,37.9,26.6,92,80,57,30.04,29.88,12,3,12,0.01
2013-11-4,50.8,40.7,27.7,44.8,37.4,25.2,96,88,76,30.11,29.97,8,1,8,0.17
2013-11-5,58.9,48.7,37.4,52.2,45.1,35.2,95,88,68,30.18,29.94,16,4,16,0.03
2013-11-6,50.9,44.9,37.1,46.6,42.9,34.9,97,93,82,30.25,29.95,6,1,6,0.45
2013-11-7,53.3,49.8,47.0,51.8,47.9,44.8,97,93,89,29.98,29.69,18,6,18,0.85
2013-11-8,56.9,47.8,37.1,49.3,43.7,34.9,94,86,68,30.09,29.98,9,2,10,0.00
2013-11-9,47.0,42.3,36.9,45.0,40.8,34.9,97,94,89,30.07,30.00,7,2,7,0.00
2013-11-10,51.3,47.9,45.7,47.8,45.5,44.4,96,92,86,30.05,29.99,13,6,13,0.00
2013-11-11,58.5,47.5,40.0,50.6,44.4,37.7,95,89,72,30.09,29.94,10,2,10,0.05
2013-11-12,60.7,51.2,41.9,55.4,48.5,40.4,96,91,78,30.31,29.96,11,3,11,0.16
2013-11-13,57.4,48.3,36.4,53.8,46.0,34.2,98,92,82,30.39,30.24,9,1,9,0.05
2013-11-14,55.6,44.9,36.0,49.3,42.6,34.1,97,92,76,30.24,30.00,7,1,7,0.24
2013-11-15,48.1,44.5,40.3,47.0,42.8,38.7,97,94,84,30.00,29.36,18,5,18,0.34
2013-11-16,48.6,44.3,40.7,42.3,39.8,37.4,94,84,71,29.74,29.37,12,4,12,0.07
2013-11-17,49.7,46.2,40.7,48.3,44.9,38.8,97,95,93,29.84,29.72,15,5,15,0.67
2013-11-18,51.3,48.7,48.4,50.0,47.7,47.1,97,96,95,29.84,29.52,15,4,15,0.81
2013-11-19,51.5,45.3,36.5,50.3,40.8,32.8,96,84,70,29.97,29.52,16,4,16,0.22
2013-11-20,43.0,32.2,24.1,33.7,26.9,21.6,95,82,57,30.40,29.97,14,2,14,0.00
2013-11-21,42.7,29.2,19.4,31.3,23.8,16.9,95,81,57,30.60,30.40,12,2,12,0.01
2013-11-22,45.0,31.9,23.0,33.6,26.7,20.7,94,82,58,30.59,30.40,13,3,13,0.00
2013-11-23,46.3,32.1,22.3,39.0,28.5,20.1,95,87,69,30.41,30.15,6,1,6,0.00
2013-11-24,42.8,32.7,24.8,40.0,30.8,22.6,96,93,88,30.22,30.12,5,1,5,0.01
2013-11-25,55.6,34.4,23.9,47.4,31.2,22.0,96,88,72,30.29,30.21,2,0,2,0.00
2013-11-26,51.5,36.8,23.8,44.8,33.3,21.8,96,88,72,30.23,30.05,4,0,4,0.01
2013-11-27,57.4,41.9,30.8,47.2,37.8,28.5,96,86,60,30.05,29.92,4,0,4,0.00
2013-11-28,55.4,36.0,27.4,48.0,32.7,25.6,96,88,73,30.15,29.98,4,0,4,0.01
2013-11-29,49.5,42.8,29.7,44.7,39.5,27.5,95,88,81,30.29,30.14,12,2,12,0.00
2013-11-30,49.3,46.7,42.3,46.4,44.1,40.1,95,91,86,30.31,30.08,15,5,15,0.18
2013-12-1,52.9,50.0,43.4,51.8,48.1,39.2,97,94,85,30.08,29.81,20,6,20,1.26
2013-12-2,43.4,37.5,33.5,39.4,34.9,31.5,95,91,81,30.02,29.85,13,2,13,0.17
2013-12-3,40.3,32.0,21.2,31.9,27.4,18.5,95,84,59,30.27,30.01,15,3,15,0.00
2013-12-4,39.4,24.0,16.7,33.5,20.6,14.1,94,87,68,30.31,30.25,5,0,5,0.00
2013-12-5,32.8,22.4,12.6,29.3,19.7,10.0,94,89,80,30.28,30.12,4,0,4,0.00
2013-12-6,31.5,27.1,24.7,24.9,18.1,9.0,94,71,49,30.13,30.02,17,5,17,0.00
2013-12-7,30.6,19.8,8.5,14.3,7.9,3.6,81,61,39,30.39,30.13,13,2,14,0.00
2013-12-8,34.0,18.0,7.4,23.1,12.0,3.1,90,78,51,30.54,30.38,3,0,3,0.00
2013-12-9,32.0,25.0,11.7,26.6,20.8,8.0,92,84,74,30.54,30.44,8,1,8,0.00
2013-12-10,36.9,32.7,29.2,34.7,30.8,26.4,95,92,89,30.46,30.37,4,1,4,0.02
2013-12-11,37.8,33.7,31.3,35.9,32.3,30.0,97,95,91,30.37,30.14,3,1,4,0.00
2013-12-12,40.9,34.2,26.5,39.8,32.7,24.9,96,94,90,30.13,30.00,13,3,13,0.29
2013-12-13,49.0,44.4,40.9,46.3,42.7,39.5,96,94,89,30.40,30.10,16,4,16,0.02
2013-12-14,48.4,42.3,35.8,46.0,40.3,34.5,97,93,87,30.40,30.29,10,2,10,0.00
2013-12-15,53.3,46.0,40.0,49.3,44.0,37.7,95,93,85,30.42,30.31,14,4,14,0.04
2013-12-16,44.8,41.3,36.4,42.9,39.9,34.5,98,95,91,30.45,30.23,8,2,8,0.00
2013-12-17,45.9,41.0,37.8,42.6,39.3,36.7,97,94,87,30.23,30.09,11,2,11,0.02
2013-12-18,47.3,40.5,28.6,41.8,36.9,26.4,96,87,68,30.11,30.00,14,3,14,0.01
2013-12-19,39.6,29.9,21.2,37.3,27.8,19.3,96,92,87,30.31,30.11,3,0,3,0.00
2013-12-20,45.7,36.7,29.9,44.9,35.2,28.1,97,95,92,30.16,29.71,24,6,24,0.18
2013-12-21,50.0,46.0,44.3,48.3,44.6,43.1,97,95,91,30.15,29.81,12,3,12,0.13
2013-12-22,50.2,47.6,44.8,48.8,46.5,43.5,96,96,95,30.29,30.13,14,6,14,0.03
2013-12-23,51.7,47.2,40.5,49.6,44.8,38.0,97,91,77,30.48,30.16,17,5,17,0.40
2013-12-24,46.4,38.5,29.2,43.8,36.3,27.2,96,92,82,30.57,30.47,7,1,7,0.00
2013-12-25,43.9,37.0,28.8,40.1,35.5,27.3,98,94,82,30.47,30.35,6,2,6,0.00
2013-12-26,47.5,35.4,28.3,43.8,33.5,26.6,97,93,85,30.36,30.16,4,0,4,0.00
2013-12-27,44.5,36.9,26.5,43.1,35.5,24.9,98,95,90,30.33,30.10,12,2,12,0.02
2013-12-28,47.0,40.6,34.6,44.0,38.9,32.0,97,94,83,30.48,30.33,5,1,5,0.00
2013-12-29,44.5,39.1,36.7,42.0,37.9,34.6,97,95,89,30.44,30.27,4,1,4,0.00
2013-12-30,44.6,40.7,37.8,41.9,39.2,37.0,98,94,88,30.27,30.10,12,2,12,0.00
2013-12-31,47.5,43.6,41.0,45.6,42.0,39.1,97,94,89,30.34,30.15,11,2,11,0.09
2014-1-1,45.0,42.5,40.5,43.1,41.4,39.3,98,96,90,30.35,30.21,8,2,8,0.01
2014-1-2,50.9,44.9,39.6,45.2,41.9,38.5,98,90,75,30.21,29.91,14,3,14,0.13